Michael S — WDE9794 — position and weather

sailwx.info

Track history (hours):
 
Tides and Currents Weather Stations Pressure Air Temp Water Temp Dewpoint Dewpoint Depression Visibility Wind Speed Wind Dir Waves Ship Positions

Michael S

Owner: Bisso Tow Boats Inc., New Orleans, LA. More information available from US FCC via Universal Licensing System and Coast Guard Vessel Documentation Center.

Last reported at 2016-Jun-29 13:33 UTC. Time now 2016-Jun-30 15:59 UTC.
Position N 29°46' W 090°02'.

Length 33 m; draft 3 m.

Type: Towing. MMSI: 367413700.

Date/timePositionNaut miles runAvg speedWind from/ knotsBaromVisibWave heightAir tempDewpointWater temp
2016-Jun-29 13:33N 29°46' W 090°02'5 4.7
2016-Jun-29 12:25N 29°51' W 089°59'0 0.0
2016-Jun-29 11:31N 29°51' W 089°59'0 0.0
2016-Jun-29 10:25N 29°51' W 089°59'0 0.0
2016-Jun-29 09:25N 29°51' W 089°59'0 0.0
2016-Jun-29 08:25N 29°51' W 089°59'0 0.0
2016-Jun-29 07:25N 29°51' W 089°59'0 0.0
2016-Jun-29 06:19N 29°51' W 089°59'4 5.0
2016-Jun-29 05:33N 29°48' W 090°01'1 0.0
2016-Jun-27 23:33N 29°46' W 090°01'5 5.2
2016-Jun-27 22:33N 29°51' W 089°59'0 0.0
2016-Jun-27 21:33N 29°51' W 089°59'0 0.0
2016-Jun-27 20:30N 29°51' W 089°59'0 0.0
2016-Jun-27 19:33N 29°51' W 089°59'0 0.0
2016-Jun-27 18:30N 29°51' W 089°59'0 0.0
2016-Jun-27 17:33N 29°51' W 089°59'0 0.0
2016-Jun-27 16:33N 29°51' W 089°59'0 0.0
2016-Jun-27 15:30N 29°51' W 089°59'0 0.0
2016-Jun-27 14:33N 29°51' W 089°59'0 0.0
2016-Jun-27 13:24N 29°51' W 089°59'0 0.0
2016-Jun-27 12:18N 29°51' W 089°59'0 0.0
2016-Jun-27 11:30N 29°51' W 089°59'0 0.0
2016-Jun-27 10:18N 29°51' W 089°59'0 0.0
2016-Jun-27 09:30N 29°51' W 089°59'0 0.0
2016-Jun-27 08:12N 29°51' W 089°59'0 0.0
2016-Jun-27 07:30N 29°51' W 089°59'7 6.6
2016-Jun-27 06:29N 29°44' W 090°00'3 0.6
2016-Jun-27 02:06N 29°42' W 089°59'611.1
2016-Jun-27 01:33N 29°48' W 090°00'8 7.4
2016-Jun-27 00:28N 29°54' W 089°54'0 0.0
2016-Jun-26 23:22N 29°54' W 089°54'0 0.0
2016-Jun-26 22:28N 29°54' W 089°54'0 0.0
2016-Jun-26 21:28N 29°54' W 089°54'0 0.0
2016-Jun-26 20:28N 29°54' W 089°54'0 0.0
2016-Jun-26 19:28N 29°54' W 089°54'0 0.0
2016-Jun-26 18:28N 29°54' W 089°54'0 0.0
2016-Jun-26 17:22N 29°54' W 089°54'0 0.0
2016-Jun-26 16:22N 29°54' W 089°54'0 0.0
2016-Jun-26 15:28N 29°54' W 089°54'0 0.0
2016-Jun-26 13:28N 29°54' W 089°54'0 0.0
2016-Jun-26 12:28N 29°54' W 089°54'0 0.1
2016-Jun-26 11:33N 29°54' W 089°54'1 0.8
2016-Jun-26 10:32N 29°53' W 089°54'0 0.3
2016-Jun-26 09:31N 29°53' W 089°54'0 0.0
2016-Jun-26 08:31N 29°53' W 089°54'2 2.3
2016-Jun-26 07:27N 29°52' W 089°57'2 2.7
2016-Jun-26 06:33N 29°53' W 089°54'0 0.0
2016-Jun-26 05:33N 29°53' W 089°54'1 0.7
2016-Jun-26 04:32N 29°54' W 089°54'0 0.1
2016-Jun-26 03:31N 29°54' W 089°54'0 0.0
2016-Jun-26 02:31N 29°54' W 089°54'0 0.0
2016-Jun-25 23:32N 29°54' W 089°54'3 2.7
2016-Jun-25 22:31N 29°52' W 089°57'0 0.0
2016-Jun-25 21:30N 29°52' W 089°57'0 0.0
2016-Jun-25 20:33N 29°52' W 089°57'0 0.0
2016-Jun-25 19:33N 29°52' W 089°57'0 0.0
2016-Jun-25 18:33N 29°52' W 089°57'1 0.9
2016-Jun-25 17:33N 29°53' W 089°58'9 8.0
2016-Jun-25 16:29N 29°44' W 090°00'1 0.1
2016-Jun-25 12:33N 29°45' W 090°01'7 3.2
2016-Jun-25 10:30N 29°51' W 089°59'0 0.0
2016-Jun-25 09:24N 29°51' W 089°59'0 0.0
2016-Jun-25 08:30N 29°51' W 089°59'0 0.5
2016-Jun-25 07:33N 29°51' W 089°59'5 4.4
2016-Jun-25 06:21N 29°54' W 089°54'2 1.0
2016-Jun-25 04:29N 29°52' W 089°55'7 7.2
2016-Jun-25 03:33N 29°47' W 090°01'6 0.8
2016-Jun-24 20:28N 29°42' W 089°59'1011.4
2016-Jun-24 19:34N 29°53' W 089°59'4 4.4
2016-Jun-24 18:33N 29°57' W 090°00'1 0.8
2016-Jun-24 17:33N 29°57' W 090°01'2 1.5
2016-Jun-24 16:33N 29°56' W 089°60'5 4.7
2016-Jun-24 15:33N 29°52' W 089°57'8 7.9
2016-Jun-24 14:33N 29°46' W 090°01'4 1.0
2016-Jun-24 10:31N 29°42' W 089°59'1110.9
2016-Jun-24 09:33N 29°53' W 089°58'4 4.4
2016-Jun-24 08:33N 29°57' W 090°00'1 0.7
2016-Jun-24 07:32N 29°57' W 090°01'0 0.0
2016-Jun-24 04:32N 29°57' W 090°01'0 0.0
2016-Jun-24 03:32N 29°57' W 090°01'0 0.0
2016-Jun-24 02:32N 29°57' W 090°01'0 0.0
2016-Jun-24 01:32N 29°57' W 090°01'0 0.0
2016-Jun-24 00:32N 29°57' W 090°01'2 2.3
2016-Jun-23 23:32N 29°56' W 089°59'3 2.8
2016-Jun-23 22:34N 29°57' W 090°01'6 6.0
2016-Jun-23 21:33N 29°56' W 090°08'0 0.0
2016-Jun-23 20:03N 29°56' W 090°08'0 0.0
2016-Jun-23 17:33N 29°56' W 090°08'0 0.0
2016-Jun-23 16:33N 29°56' W 090°08'0 0.0
2016-Jun-23 15:33N 29°56' W 090°08'0 0.0
2016-Jun-23 14:33N 29°56' W 090°08'0 0.0
2016-Jun-23 13:33N 29°56' W 090°08'0 0.0
2016-Jun-23 12:27N 29°56' W 090°08'0 0.0
2016-Jun-23 11:33N 29°56' W 090°08'0 0.0
2016-Jun-23 10:27N 29°56' W 090°08'0 0.0
2016-Jun-23 09:33N 29°56' W 090°08'0 0.0
2016-Jun-23 08:30N 29°56' W 090°08'0 0.0
2016-Jun-23 07:30N 29°56' W 090°08'1 0.5
2016-Jun-23 05:33N 29°56' W 090°08'0 0.0
2016-Jun-22 22:31N 29°56' W 090°09'1 0.8
2016-Jun-22 21:28N 29°55' W 090°08'0 0.0
2016-Jun-22 20:28N 29°55' W 090°08'1 1.1
2016-Jun-22 19:33N 29°56' W 090°08'3 1.0
2016-Jun-22 16:32N 29°55' W 090°12'1 0.5
2016-Jun-22 14:09N 29°56' W 090°11'3 4.8
2016-Jun-22 13:33N 29°55' W 090°08'2 1.9
2016-Jun-22 12:16N 29°55' W 090°05'2 3.0
2016-Jun-22 11:33N 29°57' W 090°04'1 0.0
2016-Jun-20 20:15N 29°55' W 090°04'0 0.0
2016-Jun-20 19:33N 29°55' W 090°04'0 0.0
2016-Jun-20 18:33N 29°55' W 090°04'1 0.5
2016-Jun-20 17:33N 29°56' W 090°04'0 0.1
2016-Jun-20 16:31N 29°55' W 090°04'0 0.0
2016-Jun-20 15:31N 29°55' W 090°04'0 0.0
2016-Jun-20 14:31N 29°55' W 090°04'0 0.5
2016-Jun-20 13:34N 29°55' W 090°04'3 0.4
2016-Jun-20 06:05N 29°55' W 090°08'1 2.7
2016-Jun-20 05:33N 29°56' W 090°08'4 0.8
2016-Jun-20 00:34N 29°55' W 090°04'1 1.2
2016-Jun-19 23:33N 29°56' W 090°03'0 0.0
2016-Jun-19 22:33N 29°56' W 090°03'0 0.0
2016-Jun-19 21:33N 29°56' W 090°03'5 5.0
2016-Jun-19 20:33N 29°55' W 089°58'3 2.8
2016-Jun-19 19:20N 29°54' W 089°54'0 0.2
2016-Jun-19 18:33N 29°54' W 089°54'3 2.6
2016-Jun-19 17:32N 29°55' W 089°57'0 0.0
2016-Jun-19 16:32N 29°55' W 089°57'0 0.0
2016-Jun-19 15:32N 29°55' W 089°57'2 2.2
2016-Jun-19 14:34N 29°56' W 089°59'0 0.5
2016-Jun-19 13:34N 29°56' W 089°59'  
Track history (hours):
 
Tides and Currents Weather Stations Pressure Air Temp Water Temp Dewpoint Dewpoint Depression Visibility Wind Speed Wind Dir Waves Ship Positions

Michael S

Owner: Bisso Tow Boats Inc., New Orleans, LA. More information available from US FCC via Universal Licensing System and Coast Guard Vessel Documentation Center.

Last reported at 2016-Jun-29 13:33 UTC. Time now 2016-Jun-30 15:59 UTC.
Position N 29°46' W 090°02'.

Length 33 m; draft 3 m.

Type: Towing. MMSI: 367413700.

Date/timePositionNaut miles runAvg speedWind from/ knotsBaromVisibWave heightAir tempDewpointWater temp
2016-Jun-29 13:33N 29°46' W 090°02'5 4.7
2016-Jun-29 12:25N 29°51' W 089°59'0 0.0
2016-Jun-29 11:31N 29°51' W 089°59'0 0.0
2016-Jun-29 10:25N 29°51' W 089°59'0 0.0
2016-Jun-29 09:25N 29°51' W 089°59'0 0.0
2016-Jun-29 08:25N 29°51' W 089°59'0 0.0
2016-Jun-29 07:25N 29°51' W 089°59'0 0.0
2016-Jun-29 06:19N 29°51' W 089°59'4 5.0
2016-Jun-29 05:33N 29°48' W 090°01'1 0.0
2016-Jun-27 23:33N 29°46' W 090°01'5 5.2
2016-Jun-27 22:33N 29°51' W 089°59'0 0.0
2016-Jun-27 21:33N 29°51' W 089°59'0 0.0
2016-Jun-27 20:30N 29°51' W 089°59'0 0.0
2016-Jun-27 19:33N 29°51' W 089°59'0 0.0
2016-Jun-27 18:30N 29°51' W 089°59'0 0.0
2016-Jun-27 17:33N 29°51' W 089°59'0 0.0
2016-Jun-27 16:33N 29°51' W 089°59'0 0.0
2016-Jun-27 15:30N 29°51' W 089°59'0 0.0
2016-Jun-27 14:33N 29°51' W 089°59'0 0.0
2016-Jun-27 13:24N 29°51' W 089°59'0 0.0
2016-Jun-27 12:18N 29°51' W 089°59'0 0.0
2016-Jun-27 11:30N 29°51' W 089°59'0 0.0
2016-Jun-27 10:18N 29°51' W 089°59'0 0.0
2016-Jun-27 09:30N 29°51' W 089°59'0 0.0
2016-Jun-27 08:12N 29°51' W 089°59'0 0.0
2016-Jun-27 07:30N 29°51' W 089°59'7 6.6
2016-Jun-27 06:29N 29°44' W 090°00'3 0.6
2016-Jun-27 02:06N 29°42' W 089°59'611.1
2016-Jun-27 01:33N 29°48' W 090°00'8 7.4
2016-Jun-27 00:28N 29°54' W 089°54'0 0.0
2016-Jun-26 23:22N 29°54' W 089°54'0 0.0
2016-Jun-26 22:28N 29°54' W 089°54'0 0.0
2016-Jun-26 21:28N 29°54' W 089°54'0 0.0
2016-Jun-26 20:28N 29°54' W 089°54'0 0.0
2016-Jun-26 19:28N 29°54' W 089°54'0 0.0
2016-Jun-26 18:28N 29°54' W 089°54'0 0.0
2016-Jun-26 17:22N 29°54' W 089°54'0 0.0
2016-Jun-26 16:22N 29°54' W 089°54'0 0.0
2016-Jun-26 15:28N 29°54' W 089°54'0 0.0
2016-Jun-26 13:28N 29°54' W 089°54'0 0.0
2016-Jun-26 12:28N 29°54' W 089°54'0 0.1
2016-Jun-26 11:33N 29°54' W 089°54'1 0.8
2016-Jun-26 10:32N 29°53' W 089°54'0 0.3
2016-Jun-26 09:31N 29°53' W 089°54'0 0.0
2016-Jun-26 08:31N 29°53' W 089°54'2 2.3
2016-Jun-26 07:27N 29°52' W 089°57'2 2.7
2016-Jun-26 06:33N 29°53' W 089°54'0 0.0
2016-Jun-26 05:33N 29°53' W 089°54'1 0.7
2016-Jun-26 04:32N 29°54' W 089°54'0 0.1
2016-Jun-26 03:31N 29°54' W 089°54'0 0.0
2016-Jun-26 02:31N 29°54' W 089°54'0 0.0
2016-Jun-25 23:32N 29°54' W 089°54'3 2.7
2016-Jun-25 22:31N 29°52' W 089°57'0 0.0
2016-Jun-25 21:30N 29°52' W 089°57'0 0.0
2016-Jun-25 20:33N 29°52' W 089°57'0 0.0
2016-Jun-25 19:33N 29°52' W 089°57'0 0.0
2016-Jun-25 18:33N 29°52' W 089°57'1 0.9
2016-Jun-25 17:33N 29°53' W 089°58'9 8.0
2016-Jun-25 16:29N 29°44' W 090°00'1 0.1
2016-Jun-25 12:33N 29°45' W 090°01'7 3.2
2016-Jun-25 10:30N 29°51' W 089°59'0 0.0
2016-Jun-25 09:24N 29°51' W 089°59'0 0.0
2016-Jun-25 08:30N 29°51' W 089°59'0 0.5
2016-Jun-25 07:33N 29°51' W 089°59'5 4.4
2016-Jun-25 06:21N 29°54' W 089°54'2 1.0
2016-Jun-25 04:29N 29°52' W 089°55'7 7.2
2016-Jun-25 03:33N 29°47' W 090°01'6 0.8
2016-Jun-24 20:28N 29°42' W 089°59'1011.4
2016-Jun-24 19:34N 29°53' W 089°59'4 4.4
2016-Jun-24 18:33N 29°57' W 090°00'1 0.8
2016-Jun-24 17:33N 29°57' W 090°01'2 1.5
2016-Jun-24 16:33N 29°56' W 089°60'5 4.7
2016-Jun-24 15:33N 29°52' W 089°57'8 7.9
2016-Jun-24 14:33N 29°46' W 090°01'4 1.0
2016-Jun-24 10:31N 29°42' W 089°59'1110.9
2016-Jun-24 09:33N 29°53' W 089°58'4 4.4
2016-Jun-24 08:33N 29°57' W 090°00'1 0.7
2016-Jun-24 07:32N 29°57' W 090°01'0 0.0
2016-Jun-24 04:32N 29°57' W 090°01'0 0.0
2016-Jun-24 03:32N 29°57' W 090°01'0 0.0
2016-Jun-24 02:32N 29°57' W 090°01'0 0.0
2016-Jun-24 01:32N 29°57' W 090°01'0 0.0
2016-Jun-24 00:32N 29°57' W 090°01'2 2.3
2016-Jun-23 23:32N 29°56' W 089°59'3 2.8
2016-Jun-23 22:34N 29°57' W 090°01'6 6.0
2016-Jun-23 21:33N 29°56' W 090°08'0 0.0
2016-Jun-23 20:03N 29°56' W 090°08'0 0.0
2016-Jun-23 17:33N 29°56' W 090°08'0 0.0
2016-Jun-23 16:33N 29°56' W 090°08'0 0.0
2016-Jun-23 15:33N 29°56' W 090°08'0 0.0
2016-Jun-23 14:33N 29°56' W 090°08'0 0.0
2016-Jun-23 13:33N 29°56' W 090°08'0 0.0
2016-Jun-23 12:27N 29°56' W 090°08'0 0.0
2016-Jun-23 11:33N 29°56' W 090°08'0 0.0
2016-Jun-23 10:27N 29°56' W 090°08'0 0.0
2016-Jun-23 09:33N 29°56' W 090°08'0 0.0
2016-Jun-23 08:30N 29°56' W 090°08'0 0.0
2016-Jun-23 07:30N 29°56' W 090°08'1 0.5
2016-Jun-23 05:33N 29°56' W 090°08'0 0.0
2016-Jun-22 22:31N 29°56' W 090°09'1 0.8
2016-Jun-22 21:28N 29°55' W 090°08'0 0.0
2016-Jun-22 20:28N 29°55' W 090°08'1 1.1
2016-Jun-22 19:33N 29°56' W 090°08'3 1.0
2016-Jun-22 16:32N 29°55' W 090°12'1 0.5
2016-Jun-22 14:09N 29°56' W 090°11'3 4.8
2016-Jun-22 13:33N 29°55' W 090°08'2 1.9
2016-Jun-22 12:16N 29°55' W 090°05'2 3.0
2016-Jun-22 11:33N 29°57' W 090°04'1 0.0
2016-Jun-20 20:15N 29°55' W 090°04'0 0.0
2016-Jun-20 19:33N 29°55' W 090°04'0 0.0
2016-Jun-20 18:33N 29°55' W 090°04'1 0.5
2016-Jun-20 17:33N 29°56' W 090°04'0 0.1
2016-Jun-20 16:31N 29°55' W 090°04'0 0.0
2016-Jun-20 15:31N 29°55' W 090°04'0 0.0
2016-Jun-20 14:31N 29°55' W 090°04'0 0.5
2016-Jun-20 13:34N 29°55' W 090°04'3 0.4
2016-Jun-20 06:05N 29°55' W 090°08'1 2.7
2016-Jun-20 05:33N 29°56' W 090°08'4 0.8
2016-Jun-20 00:34N 29°55' W 090°04'1 1.2
2016-Jun-19 23:33N 29°56' W 090°03'0 0.0
2016-Jun-19 22:33N 29°56' W 090°03'0 0.0
2016-Jun-19 21:33N 29°56' W 090°03'5 5.0
2016-Jun-19 20:33N 29°55' W 089°58'3 2.8
2016-Jun-19 19:20N 29°54' W 089°54'0 0.2
2016-Jun-19 18:33N 29°54' W 089°54'3 2.6
2016-Jun-19 17:32N 29°55' W 089°57'0 0.0
2016-Jun-19 16:32N 29°55' W 089°57'0 0.0
2016-Jun-19 15:32N 29°55' W 089°57'2 2.2
2016-Jun-19 14:34N 29°56' W 089°59'0 0.5
2016-Jun-19 13:34N 29°56' W 089°59'  

Dump ship's entire track history